Time;durP1;ratioP1;P1;durP2;ratioP2;P2;SDS_P1;SDS_P2;PMS_P1;PMS_P2;Temp;Humidity;BMP_temperature;BMP_pressure;BME280_temperature;BME280_humidity;BME280_pressure;Samples;Min_cycle;Max_cycle;Signal;HPM_P1;HPM_P2
2020/12/20 00:00:13;;;;;;;13.13;9.20;;;4.40;99.90;;;;;;4989249;28;20523;-73
2020/12/20 00:02:40;;;;;;;15.53;10.80;;;4.40;99.90;;;;;;4988530;28;20522;-73
2020/12/20 00:05:06;;;;;;;18.70;11.50;;;4.40;99.90;;;;;;4985480;28;20537;-73
2020/12/20 00:07:34;;;;;;;15.67;10.43;;;4.30;99.90;;;;;;4985522;28;20537;-72
2020/12/20 00:10:00;;;;;;;20.40;10.97;;;4.30;99.90;;;;;;4992316;28;21045;-73
2020/12/20 00:12:26;;;;;;;20.63;10.37;;;4.30;99.90;;;;;;4990773;28;20549;-73
2020/12/20 00:14:53;;;;;;;17.37;11.00;;;4.20;99.90;;;;;;4990932;28;20499;-73
2020/12/20 00:17:19;;;;;;;22.30;11.70;;;4.20;99.90;;;;;;4988860;28;20525;-72
2020/12/20 00:19:46;;;;;;;18.70;12.20;;;4.20;99.90;;;;;;4986652;28;20920;-72
2020/12/20 00:22:14;;;;;;;14.97;9.40;;;4.20;99.90;;;;;;4989046;28;20438;-73
2020/12/20 00:24:43;;;;;;;17.63;10.90;;;4.20;99.90;;;;;;4991076;28;20912;-73
2020/12/20 00:27:10;;;;;;;18.50;11.03;;;4.20;99.90;;;;;;4989379;28;20478;-73
2020/12/20 00:29:38;;;;;;;20.70;12.10;;;4.20;99.90;;;;;;4988005;28;20486;-72
2020/12/20 00:32:06;;;;;;;17.00;10.27;;;4.20;99.90;;;;;;4988098;28;20848;-73
2020/12/20 00:34:33;;;;;;;15.30;10.70;;;4.20;99.90;;;;;;4990376;28;20497;-72
2020/12/20 00:37:00;;;;;;;15.70;10.07;;;4.20;99.90;;;;;;4993049;28;20769;-72
2020/12/20 00:39:27;;;;;;;15.20;9.03;;;4.20;99.90;;;;;;4990676;28;20497;-72
2020/12/20 00:41:56;;;;;;;18.00;10.70;;;4.20;99.90;;;;;;4989244;28;20517;-72
2020/12/20 00:44:22;;;;;;;19.77;11.50;;;4.10;99.90;;;;;;4987418;28;20507;-74
2020/12/20 00:46:50;;;;;;;18.30;9.90;;;4.20;99.90;;;;;;4987447;28;20461;-73
2020/12/20 00:49:16;;;;;;;22.03;11.30;;;4.20;99.90;;;;;;4988535;28;20505;-73
2020/12/20 00:51:43;;;;;;;17.10;12.63;;;4.20;99.90;;;;;;4999321;28;20454;-72
2020/12/20 00:54:09;;;;;;;19.03;10.03;;;4.20;99.90;;;;;;4998132;28;20489;-73
2020/12/20 00:56:36;;;;;;;17.00;9.37;;;4.20;99.90;;;;;;4998546;28;20490;-73
2020/12/20 00:59:04;;;;;;;18.83;10.40;;;4.20;99.90;;;;;;4999213;28;20541;-74
2020/12/20 01:01:30;;;;;;;21.50;11.27;;;4.30;99.90;;;;;;4999089;28;20484;-73
2020/12/20 01:03:57;;;;;;;18.60;11.43;;;4.20;99.90;;;;;;4999110;28;20493;-73
2020/12/20 01:06:24;;;;;;;17.73;11.87;;;4.30;99.90;;;;;;4999117;28;20509;-73
2020/12/20 01:08:51;;;;;;;20.37;12.03;;;4.20;99.90;;;;;;4999593;28;20543;-73
2020/12/20 01:11:19;;;;;;;14.67;9.97;;;4.20;99.90;;;;;;4998852;28;20481;-73
2020/12/20 01:13:46;;;;;;;20.60;10.57;;;4.20;99.90;;;;;;4999778;28;20990;-73
2020/12/20 01:16:17;;;;;;;20.93;10.27;;;4.20;99.90;;;;;;5000211;28;20513;-73
2020/12/20 01:18:44;;;;;;;15.60;9.83;;;4.20;99.90;;;;;;4999119;28;20529;-73
2020/12/20 01:21:10;;;;;;;16.30;10.97;;;4.20;99.90;;;;;;4998879;28;20494;-73
2020/12/20 01:23:37;;;;;;;16.37;10.17;;;4.20;99.90;;;;;;4997986;28;20485;-73
2020/12/20 01:26:04;;;;;;;16.07;9.70;;;4.20;99.90;;;;;;4998551;28;20553;-73
2020/12/20 01:28:31;;;;;;;20.37;12.10;;;4.20;99.90;;;;;;4999569;28;20878;-73
2020/12/20 01:30:58;;;;;;;23.03;12.20;;;4.20;99.90;;;;;;4999662;28;20486;-74
2020/12/20 01:33:25;;;;;;;17.00;9.73;;;4.10;99.90;;;;;;4998575;28;20529;-74
2020/12/20 01:35:51;;;;;;;18.57;11.50;;;4.10;99.90;;;;;;4998749;28;20926;-74
2020/12/20 01:38:18;;;;;;;14.70;11.07;;;4.00;99.90;;;;;;4998147;28;20933;-73
2020/12/20 01:40:51;;;;;;;19.20;10.67;;;4.00;99.90;;;;;;4998805;28;20537;-72
2020/12/20 01:43:17;;;;;;;19.27;12.47;;;4.00;99.90;;;;;;5000578;28;20770;-72
2020/12/20 01:45:44;;;;;;;18.13;12.00;;;3.90;99.90;;;;;;5000510;28;20454;-71
2020/12/20 01:48:11;;;;;;;14.90;9.07;;;3.90;99.90;;;;;;4998687;28;20926;-72
2020/12/20 01:50:39;;;;;;;20.50;12.37;;;3.90;99.90;;;;;;4998120;28;20577;-73
2020/12/20 01:53:06;;;;;;;21.40;12.37;;;3.90;99.90;;;;;;4998793;28;20535;-73
2020/12/20 01:55:32;;;;;;;21.00;11.20;;;3.90;99.90;;;;;;4998642;28;20457;-74
2020/12/20 01:57:59;;;;;;;21.03;12.20;;;3.90;99.90;;;;;;4998981;28;20450;-73
2020/12/20 02:00:26;;;;;;;17.47;11.47;;;3.90;99.90;;;;;;4997836;28;20441;-72
2020/12/20 02:02:53;;;;;;;20.50;11.67;;;3.80;99.90;;;;;;4998529;28;20529;-73
2020/12/20 02:05:19;;;;;;;18.83;11.00;;;3.90;99.90;;;;;;4998070;28;21015;-73
2020/12/20 02:07:48;;;;;;;23.47;11.67;;;3.80;99.90;;;;;;4998946;28;20454;-72
2020/12/20 02:10:17;;;;;;;21.50;13.17;;;3.80;99.90;;;;;;4999174;28;20628;-73
2020/12/20 02:12:44;;;;;;;16.60;10.23;;;3.80;99.90;;;;;;4999714;28;20446;-72
2020/12/20 02:15:10;;;;;;;19.20;11.47;;;3.90;99.90;;;;;;4998262;28;20458;-71
2020/12/20 02:17:37;;;;;;;15.70;10.83;;;3.80;99.90;;;;;;4998479;28;20457;-72
2020/12/20 02:20:04;;;;;;;21.73;12.60;;;3.90;99.90;;;;;;4998317;28;20537;-72
2020/12/20 02:22:32;;;;;;;20.47;13.27;;;3.90;99.90;;;;;;4999832;28;20791;-73
2020/12/20 02:24:59;;;;;;;23.00;13.27;;;3.90;99.90;;;;;;5002006;28;20472;-73
2020/12/20 02:27:25;;;;;;;20.80;13.00;;;3.90;99.90;;;;;;5002081;28;20450;-73
2020/12/20 02:29:52;;;;;;;23.37;12.80;;;3.90;99.90;;;;;;5001676;28;20615;-72
2020/12/20 02:32:19;;;;;;;20.57;12.47;;;3.90;99.90;;;;;;5001255;28;20454;-73
2020/12/20 02:34:45;;;;;;;18.97;11.10;;;3.90;99.90;;;;;;5001576;28;20604;-73
2020/12/20 02:37:12;;;;;;;17.30;10.60;;;3.80;99.90;;;;;;5002965;28;20460;-72
2020/12/20 02:39:41;;;;;;;22.17;12.30;;;3.80;99.90;;;;;;5002975;28;20873;-72
2020/12/20 02:42:08;;;;;;;18.23;11.50;;;3.90;99.90;;;;;;5002529;28;20453;-72
2020/12/20 02:44:34;;;;;;;18.70;11.67;;;3.90;99.90;;;;;;5002112;28;20513;-73
2020/12/20 02:47:01;;;;;;;16.83;10.20;;;3.90;99.90;;;;;;5002407;28;20541;-72
2020/12/20 02:49:27;;;;;;;20.83;13.83;;;3.90;99.90;;;;;;5001240;28;20875;-73
2020/12/20 02:51:54;;;;;;;18.87;10.90;;;3.90;99.90;;;;;;5001783;28;20474;-72
2020/12/20 02:54:20;;;;;;;21.70;11.43;;;3.90;99.90;;;;;;5001901;28;20946;-72
2020/12/20 02:56:47;;;;;;;18.90;11.93;;;3.90;99.90;;;;;;5002540;28;20446;-73
2020/12/20 02:59:14;;;;;;;23.83;13.13;;;3.90;99.90;;;;;;5001798;28;20540;-73
2020/12/20 03:01:40;;;;;;;21.73;14.00;;;3.90;99.90;;;;;;5001355;28;20469;-73
2020/12/20 03:04:07;;;;;;;22.10;11.90;;;4.00;99.90;;;;;;5001898;28;20533;-73
2020/12/20 03:06:33;;;;;;;21.60;11.97;;;3.90;99.90;;;;;;5001390;28;20462;-73
2020/12/20 03:08:59;;;;;;;19.83;12.43;;;3.90;99.90;;;;;;5001068;28;20536;-72
2020/12/20 03:11:26;;;;;;;19.30;12.10;;;4.00;99.90;;;;;;5000882;28;20516;-72
2020/12/20 03:13:53;;;;;;;38.00;19.93;;;4.00;99.90;;;;;;5001055;28;20457;-73
2020/12/20 03:16:20;;;;;;;25.07;12.63;;;3.90;99.90;;;;;;5000968;28;20460;-72
2020/12/20 03:18:46;;;;;;;21.90;12.03;;;3.90;99.90;;;;;;5001397;28;20544;-72
2020/12/20 03:21:12;;;;;;;22.07;11.73;;;3.90;99.90;;;;;;5001638;28;20561;-72
2020/12/20 03:23:39;;;;;;;18.90;12.30;;;3.90;99.90;;;;;;5001666;28;20527;-73
2020/12/20 03:26:06;;;;;;;20.07;12.10;;;3.90;99.90;;;;;;5001132;28;20544;-72
2020/12/20 03:28:33;;;;;;;18.57;10.83;;;3.90;99.90;;;;;;5001280;28;20544;-71
2020/12/20 03:31:00;;;;;;;20.83;12.23;;;3.90;99.90;;;;;;5001125;28;21052;-72
2020/12/20 03:33:27;;;;;;;19.73;11.80;;;3.90;99.90;;;;;;4999733;28;20481;-73
2020/12/20 03:35:53;;;;;;;17.93;11.73;;;3.90;99.90;;;;;;5001208;28;20541;-73
2020/12/20 03:38:20;;;;;;;21.93;12.17;;;3.90;99.90;;;;;;5000529;28;20491;-73
2020/12/20 03:40:46;;;;;;;21.00;13.47;;;3.90;99.90;;;;;;5000828;28;20506;-73
2020/12/20 03:43:12;;;;;;;19.60;12.43;;;3.80;99.90;;;;;;5000595;28;20863;-73
2020/12/20 03:45:39;;;;;;;20.47;12.50;;;3.80;99.90;;;;;;5000724;28;20450;-72
2020/12/20 03:48:33;;;;;;;25.00;14.33;;;3.90;99.90;;;;;;5024129;23;20485;-71
2020/12/20 03:51:00;;;;;;;18.80;13.00;;;3.90;99.90;;;;;;5000506;23;20493;-72
2020/12/20 03:53:27;;;;;;;20.73;12.10;;;3.90;99.90;;;;;;5000420;28;20507;-72
2020/12/20 03:55:55;;;;;;;28.10;12.40;;;4.00;99.90;;;;;;5001158;28;20537;-72
2020/12/20 03:58:21;;;;;;;18.63;11.10;;;4.00;99.90;;;;;;5001571;28;20458;-73
2020/12/20 04:00:48;;;;;;;20.50;12.40;;;4.00;99.90;;;;;;5000851;28;20446;-73
2020/12/20 04:03:14;;;;;;;16.70;12.23;;;4.10;99.90;;;;;;5000922;28;20457;-73
2020/12/20 04:05:41;;;;;;;21.03;12.97;;;4.10;99.90;;;;;;5000103;28;20458;-73
2020/12/20 04:08:08;;;;;;;20.60;11.43;;;4.00;99.90;;;;;;5000029;28;20541;-73
2020/12/20 04:10:34;;;;;;;21.90;12.83;;;4.10;99.90;;;;;;5000194;28;21006;-72
2020/12/20 04:13:01;;;;;;;17.70;11.07;;;4.00;99.90;;;;;;5000090;28;20516;-73
2020/12/20 04:15:27;;;;;;;19.23;12.60;;;4.10;99.90;;;;;;5000866;28;20506;-73
2020/12/20 04:17:53;;;;;;;22.37;12.67;;;4.10;99.90;;;;;;5000688;28;20938;-72
2020/12/20 04:20:20;;;;;;;18.40;11.73;;;4.10;99.90;;;;;;5000478;28;20482;-73
2020/12/20 04:22:46;;;;;;;19.00;11.97;;;4.00;99.90;;;;;;5000434;28;20533;-72
2020/12/20 04:25:13;;;;;;;22.50;13.60;;;4.00;99.90;;;;;;5001524;28;20474;-71
2020/12/20 04:27:40;;;;;;;25.13;13.30;;;4.00;99.90;;;;;;5000728;28;20881;-72
2020/12/20 04:30:06;;;;;;;24.70;12.20;;;4.10;99.90;;;;;;4999682;28;20584;-72
2020/12/20 04:32:33;;;;;;;17.40;11.37;;;4.10;99.90;;;;;;4999965;28;20542;-72
2020/12/20 04:34:59;;;;;;;20.87;13.03;;;4.20;99.90;;;;;;4999533;28;20453;-73
2020/12/20 04:37:25;;;;;;;24.13;14.63;;;4.20;99.90;;;;;;4999626;28;20454;-73
2020/12/20 04:39:52;;;;;;;20.67;11.57;;;4.10;99.90;;;;;;5000010;28;20529;-72
2020/12/20 04:42:19;;;;;;;21.20;12.80;;;4.10;99.90;;;;;;4999502;28;20545;-72
2020/12/20 04:44:46;;;;;;;21.77;13.20;;;4.10;99.90;;;;;;4999259;28;20457;-74
2020/12/20 04:47:16;;;;;;;21.77;13.80;;;4.10;99.90;;;;;;4999670;28;20450;-72
2020/12/20 04:49:44;;;;;;;20.00;12.03;;;4.10;99.90;;;;;;4999464;28;20497;-72
2020/12/20 04:52:11;;;;;;;19.63;12.10;;;4.00;99.90;;;;;;4999801;28;20442;-71
2020/12/20 04:54:39;;;;;;;24.63;13.37;;;3.90;99.90;;;;;;4999408;28;20552;-73
2020/12/20 04:57:06;;;;;;;21.20;12.90;;;3.90;99.90;;;;;;4999809;28;20468;-72
2020/12/20 04:59:35;;;;;;;22.40;13.27;;;3.90;99.90;;;;;;4999142;28;20477;-72
2020/12/20 05:02:02;;;;;;;19.50;12.67;;;3.90;99.90;;;;;;4999794;28;20474;-72
2020/12/20 05:04:29;;;;;;;16.97;12.30;;;3.90;99.90;;;;;;4998947;28;20455;-72
2020/12/20 05:06:56;;;;;;;20.87;12.50;;;3.90;99.90;;;;;;4998505;28;20462;-72
2020/12/20 05:09:22;;;;;;;21.17;12.53;;;4.00;99.90;;;;;;4999278;28;20536;-72
2020/12/20 05:11:49;;;;;;;20.73;12.90;;;4.00;99.90;;;;;;4998695;28;20496;-73
2020/12/20 05:14:15;;;;;;;20.37;13.87;;;4.00;99.90;;;;;;4999111;28;20533;-72
2020/12/20 05:16:43;;;;;;;22.70;13.47;;;4.10;99.90;;;;;;4998873;28;20471;-73
2020/12/20 05:19:15;;;;;;;25.23;15.27;;;4.00;99.90;;;;;;4999532;28;20446;-72
2020/12/20 05:21:43;;;;;;;21.43;13.07;;;4.00;99.90;;;;;;4999297;28;20891;-71
2020/12/20 05:24:25;;;;;;;25.20;14.87;;;3.90;99.90;;;;;;4999229;28;20456;-72
2020/12/20 05:26:52;;;;;;;24.53;15.40;;;3.80;99.90;;;;;;4999115;28;20457;-72
2020/12/20 05:29:25;;;;;;;26.03;13.90;;;3.80;99.90;;;;;;4998788;28;20553;-73
2020/12/20 05:31:52;;;;;;;22.63;13.17;;;3.70;99.90;;;;;;4999344;28;20513;-73
2020/12/20 05:34:22;;;;;;;21.57;12.83;;;3.70;99.90;;;;;;4998969;28;20465;-72
2020/12/20 05:36:48;;;;;;;32.30;17.60;;;3.80;99.90;;;;;;4998742;28;20466;-71
2020/12/20 05:39:17;;;;;;;23.53;13.30;;;3.70;99.90;;;;;;4998853;28;20480;-72
2020/12/20 05:41:44;;;;;;;22.20;12.87;;;3.70;99.90;;;;;;4998678;28;20521;-72
2020/12/20 05:44:18;;;;;;;23.53;13.30;;;3.70;99.90;;;;;;4998486;28;20501;-72
2020/12/20 05:46:45;;;;;;;24.87;15.23;;;3.70;99.90;;;;;;5000148;28;20437;-72
2020/12/20 05:49:17;;;;;;;26.80;14.93;;;3.70;99.90;;;;;;5000263;28;20557;-72
2020/12/20 05:52:06;;;;;;;20.87;12.80;;;3.70;99.90;;;;;;4999254;28;20533;-72
2020/12/20 05:54:34;;;;;;;29.30;15.60;;;3.80;99.90;;;;;;4998822;28;20549;-72
2020/12/20 05:57:11;;;;;;;23.23;14.23;;;3.70;99.90;;;;;;4999803;28;20450;-73
2020/12/20 05:59:38;;;;;;;28.10;14.47;;;3.70;99.90;;;;;;5003217;28;20520;-72
2020/12/20 06:02:06;;;;;;;26.40;15.40;;;3.70;99.90;;;;;;5002808;28;20485;-72
2020/12/20 06:04:34;;;;;;;37.13;18.03;;;3.60;99.90;;;;;;5003062;28;20450;-72
2020/12/20 06:07:01;;;;;;;26.00;14.73;;;3.60;99.90;;;;;;5002494;28;20559;-73
2020/12/20 06:09:29;;;;;;;24.03;15.00;;;3.60;99.90;;;;;;5002761;28;20891;-71
2020/12/20 06:11:56;;;;;;;20.80;13.83;;;3.50;99.90;;;;;;5002557;28;20568;-72
2020/12/20 06:14:25;;;;;;;26.67;15.13;;;3.50;99.90;;;;;;5002337;28;20548;-71
2020/12/20 06:17:12;;;;;;;23.80;13.20;;;3.50;99.90;;;;;;5002788;28;20473;-71
2020/12/20 06:19:57;;;;;;;24.50;14.47;;;3.50;99.90;;;;;;5002893;28;20469;-72
2020/12/20 06:22:29;;;;;;;19.73;12.50;;;3.50;99.90;;;;;;5002056;28;20525;-73
2020/12/20 06:24:57;;;;;;;22.60;15.57;;;3.50;99.90;;;;;;5001672;28;20484;-73
2020/12/20 06:27:26;;;;;;;29.60;14.33;;;3.50;99.90;;;;;;5001070;28;20517;-72
2020/12/20 06:29:54;;;;;;;28.60;15.40;;;3.50;99.90;;;;;;5002076;28;20462;-72
2020/12/20 06:32:33;;;;;;;25.00;14.20;;;3.50;99.90;;;;;;5002769;28;20457;-73
2020/12/20 06:35:10;;;;;;;28.10;15.60;;;3.50;99.90;;;;;;5003009;28;20517;-72
2020/12/20 06:37:40;;;;;;;26.40;13.27;;;3.40;99.90;;;;;;5002297;28;20528;-73
2020/12/20 06:40:07;;;;;;;27.77;16.40;;;3.50;99.90;;;;;;5002348;28;20448;-72
2020/12/20 06:42:36;;;;;;;25.40;14.57;;;3.50;99.90;;;;;;5002122;28;20489;-72
2020/12/20 06:45:18;;;;;;;24.87;15.10;;;3.50;99.90;;;;;;5002413;28;20450;-72
2020/12/20 06:47:46;;;;;;;27.70;15.20;;;3.50;99.90;;;;;;5002310;28;20438;-71
2020/12/20 06:50:14;;;;;;;27.03;16.37;;;3.60;99.90;;;;;;5001698;28;20584;-72
2020/12/20 06:52:49;;;;;;;27.57;14.93;;;3.60;99.90;;;;;;5001329;28;20584;-72
2020/12/20 06:55:19;;;;;;;24.57;14.00;;;3.60;99.90;;;;;;5002630;28;20462;-72
2020/12/20 06:58:10;;;;;;;25.87;16.00;;;3.60;99.90;;;;;;5001931;28;20492;-72
2020/12/20 07:00:42;;;;;;;31.77;15.90;;;3.60;99.90;;;;;;4995089;28;20456;-73
2020/12/20 07:03:10;;;;;;;23.30;13.40;;;3.60;99.90;;;;;;5002179;28;20588;-72
2020/12/20 07:05:39;;;;;;;22.50;13.63;;;3.70;99.90;;;;;;5001664;28;20545;-71
2020/12/20 07:08:07;;;;;;;27.30;15.17;;;3.60;99.90;;;;;;5001225;28;20456;-72
2020/12/20 07:10:45;;;;;;;26.20;15.03;;;3.70;99.90;;;;;;5001845;28;20982;-72
2020/12/20 07:13:13;;;;;;;26.30;14.83;;;3.70;99.90;;;;;;5002721;28;20533;-71
2020/12/20 07:15:50;;;;;;;28.03;15.47;;;3.70;99.90;;;;;;4999242;28;20541;-71
2020/12/20 07:18:59;;;;;;;23.70;14.10;;;4.20;99.90;;;;;;5004435;28;20826;-71
2020/12/20 07:22:00;;;;;;;20.13;12.70;;;4.60;99.90;;;;;;4979551;28;20493;-71
2020/12/20 07:24:29;;;;;;;22.83;13.90;;;4.90;99.90;;;;;;4987465;28;20426;-72
2020/12/20 07:26:59;;;;;;;23.33;13.97;;;4.90;99.90;;;;;;4994855;28;20431;-73
2020/12/20 07:29:25;;;;;;;27.17;14.97;;;4.70;99.90;;;;;;4994998;28;20473;-72
2020/12/20 07:31:54;;;;;;;20.80;13.87;;;4.60;99.90;;;;;;4995775;28;20569;-72
2020/12/20 07:34:21;;;;;;;22.97;14.60;;;4.40;99.90;;;;;;4990936;28;20467;-73
2020/12/20 07:36:47;;;;;;;25.20;14.90;;;4.20;99.90;;;;;;4998422;28;20923;-73
2020/12/20 07:39:15;;;;;;;27.43;16.27;;;4.10;99.90;;;;;;4998448;28;20497;-72
2020/12/20 07:41:42;;;;;;;25.97;14.70;;;3.90;99.90;;;;;;4986475;28;20475;-72
2020/12/20 07:44:11;;;;;;;28.00;17.40;;;3.90;99.90;;;;;;4990561;28;20556;-72
2020/12/20 07:46:38;;;;;;;23.30;13.43;;;3.80;99.90;;;;;;4996029;28;20534;-72
2020/12/20 07:49:06;;;;;;;31.43;15.67;;;3.80;99.90;;;;;;4996929;28;20462;-65
2020/12/20 07:51:33;;;;;;;23.80;14.20;;;3.90;99.90;;;;;;4997815;28;20510;-68
2020/12/20 07:54:01;;;;;;;27.87;15.30;;;3.90;99.90;;;;;;4994142;28;20482;-67
2020/12/20 07:56:30;;;;;;;21.70;14.43;;;4.10;99.90;;;;;;4998637;28;20461;-67
2020/12/20 07:58:58;;;;;;;25.93;16.87;;;4.10;99.90;;;;;;4999566;28;20565;-67
2020/12/20 08:01:27;;;;;;;31.50;17.77;;;4.10;99.90;;;;;;4999963;28;20489;-68
2020/12/20 08:04:07;;;;;;;25.33;13.97;;;4.20;99.90;;;;;;4999707;28;20450;-69
2020/12/20 08:06:45;;;;;;;28.37;16.10;;;4.40;99.90;;;;;;4984599;28;20478;-68
2020/12/20 08:09:13;;;;;;;27.67;15.70;;;4.40;99.90;;;;;;4983564;28;20521;-66
2020/12/20 08:11:44;;;;;;;29.93;17.63;;;4.40;99.90;;;;;;4992769;28;20501;-67
2020/12/20 08:14:12;;;;;;;25.53;15.60;;;4.40;99.90;;;;;;4999154;28;20478;-67
2020/12/20 08:16:40;;;;;;;23.30;14.77;;;4.50;99.90;;;;;;4999934;28;20457;-67
2020/12/20 08:19:07;;;;;;;22.20;15.87;;;4.50;99.90;;;;;;5005957;28;20458;-68
2020/12/20 08:21:47;;;;;;;23.90;14.03;;;4.70;99.90;;;;;;5004145;28;20474;-69
2020/12/20 08:24:14;;;;;;;26.97;15.33;;;4.70;99.90;;;;;;5005741;28;20441;-67
2020/12/20 08:26:43;;;;;;;27.70;15.73;;;4.70;99.90;;;;;;5005913;28;20560;-67
2020/12/20 08:29:15;;;;;;;24.53;13.60;;;4.60;99.90;;;;;;5012343;28;20497;-67
2020/12/20 08:31:42;;;;;;;25.70;15.63;;;4.60;99.90;;;;;;5008285;28;20492;-68
2020/12/20 08:34:18;;;;;;;23.40;14.33;;;4.60;99.90;;;;;;5007986;28;20452;-67
2020/12/20 08:36:46;;;;;;;26.23;14.83;;;4.60;99.90;;;;;;5012663;28;20575;-67
2020/12/20 08:39:14;;;;;;;29.53;16.57;;;4.60;99.90;;;;;;5010384;28;20460;-66
2020/12/20 08:42:02;;;;;;;28.30;15.60;;;4.70;99.90;;;;;;5007768;28;20483;-67
2020/12/20 08:44:29;;;;;;;28.67;14.97;;;4.70;99.90;;;;;;4997660;28;20477;-66
2020/12/20 08:47:05;;;;;;;25.43;15.80;;;4.60;99.90;;;;;;5009969;28;21034;-67
2020/12/20 08:49:32;;;;;;;24.20;14.37;;;4.70;99.90;;;;;;5010814;28;20567;-66
2020/12/20 08:52:12;;;;;;;26.93;14.73;;;4.70;99.90;;;;;;5003381;28;20807;-68
2020/12/20 08:54:39;;;;;;;23.83;15.03;;;4.80;99.90;;;;;;5007335;28;20426;-67
2020/12/20 08:57:08;;;;;;;22.80;13.90;;;4.90;99.90;;;;;;4998257;28;20442;-67
2020/12/20 08:59:37;;;;;;;27.60;16.27;;;5.00;99.90;;;;;;5011975;28;20450;-67
2020/12/20 09:02:05;;;;;;;26.10;14.30;;;5.10;99.90;;;;;;4994950;28;20434;-67
2020/12/20 09:04:32;;;;;;;24.73;15.47;;;5.10;99.90;;;;;;5008207;28;20510;-66
2020/12/20 09:07:08;;;;;;;25.60;15.70;;;5.10;99.90;;;;;;5010009;28;20884;-66
2020/12/20 09:09:38;;;;;;;22.97;14.30;;;5.00;99.90;;;;;;5001386;28;20449;-67
2020/12/20 09:12:18;;;;;;;20.50;12.97;;;5.00;99.90;;;;;;5003107;28;20568;-68
2020/12/20 09:15:02;;;;;;;24.10;15.83;;;5.00;99.90;;;;;;5003497;28;20445;-66
2020/12/20 09:17:33;;;;;;;24.13;14.00;;;5.10;99.90;;;;;;5009792;28;20457;-67
2020/12/20 09:20:04;;;;;;;25.07;15.50;;;5.10;99.90;;;;;;5012295;28;20443;-67
2020/12/20 09:22:44;;;;;;;28.20;15.17;;;5.10;99.90;;;;;;5005785;28;20457;-67
2020/12/20 09:25:15;;;;;;;24.47;15.60;;;5.20;99.90;;;;;;5014498;28;20804;-66
2020/12/20 09:27:56;;;;;;;23.27;13.90;;;5.20;99.90;;;;;;5011718;28;20437;-66
2020/12/20 09:30:37;;;;;;;24.20;13.33;;;5.20;99.90;;;;;;5008257;28;20493;-66
2020/12/20 09:33:18;;;;;;;25.03;14.00;;;5.30;99.90;;;;;;5011707;28;20470;-66
2020/12/20 09:35:57;;;;;;;22.67;13.10;;;5.30;99.90;;;;;;4995238;28;20540;-66
2020/12/20 09:38:25;;;;;;;23.70;12.80;;;5.40;99.90;;;;;;5003215;28;20947;-73
2020/12/20 09:41:02;;;;;;;24.87;14.80;;;5.40;99.90;;;;;;4998216;28;20510;-73
2020/12/20 09:43:30;;;;;;;25.00;13.07;;;5.40;99.90;;;;;;4997038;28;20457;-71
2020/12/20 09:45:57;;;;;;;23.83;12.07;;;5.30;99.90;;;;;;5000879;28;20528;-73
2020/12/20 09:48:24;;;;;;;21.90;12.00;;;5.40;99.90;;;;;;5000319;28;20478;-72
2020/12/20 09:50:51;;;;;;;17.10;11.23;;;5.30;99.90;;;;;;4998663;28;20498;-73
2020/12/20 09:53:20;;;;;;;30.63;13.37;;;5.30;99.90;;;;;;4998345;28;20453;-72
2020/12/20 09:55:48;;;;;;;20.47;12.20;;;5.30;99.90;;;;;;4996585;28;20485;-73
2020/12/20 09:58:15;;;;;;;20.60;11.37;;;5.30;99.90;;;;;;4998908;28;20843;-72
2020/12/20 10:00:43;;;;;;;24.73;12.90;;;5.40;99.90;;;;;;5000728;28;20454;-74
2020/12/20 10:03:18;;;;;;;30.53;14.97;;;5.40;99.90;;;;;;5000060;28;20477;-71
2020/12/20 10:05:50;;;;;;;26.23;13.40;;;5.50;99.90;;;;;;4997632;28;20533;-70
2020/12/20 10:08:18;;;;;;;19.47;11.90;;;5.50;99.90;;;;;;4996847;28;20922;-70
2020/12/20 10:10:45;;;;;;;23.43;13.83;;;5.70;99.90;;;;;;4997175;28;20481;-69
2020/12/20 10:13:11;;;;;;;24.17;12.23;;;6.20;99.90;;;;;;4999566;28;20518;-69
2020/12/20 10:15:37;;;;;;;17.37;10.70;;;6.90;99.90;;;;;;5001116;28;20486;-70
2020/12/20 10:18:05;;;;;;;25.00;13.90;;;7.70;99.90;;;;;;5000556;28;20518;-70
2020/12/20 10:20:32;;;;;;;14.17;10.50;;;8.30;99.90;;;;;;4998538;28;20493;-69
2020/12/20 10:22:58;;;;;;;21.73;12.63;;;8.80;99.90;;;;;;4998327;28;20538;-67
2020/12/20 10:25:25;;;;;;;16.73;11.77;;;9.00;99.90;;;;;;4998867;28;20489;-70
2020/12/20 10:27:53;;;;;;;14.30;11.27;;;8.70;99.90;;;;;;4999175;28;20476;-70
2020/12/20 10:30:20;;;;;;;15.57;10.13;;;8.50;99.90;;;;;;4998276;28;20544;-70
2020/12/20 10:32:47;;;;;;;19.53;12.53;;;8.00;99.90;;;;;;4998610;28;20485;-70
2020/12/20 10:35:15;;;;;;;14.47;10.97;;;7.60;99.90;;;;;;4998789;28;20461;-68
2020/12/20 10:37:41;;;;;;;14.87;10.00;;;7.40;99.90;;;;;;4998801;28;20498;-69
2020/12/20 10:40:07;;;;;;;17.30;10.53;;;7.40;99.90;;;;;;4998057;28;20504;-70
2020/12/20 10:42:34;;;;;;;16.83;11.17;;;7.10;99.90;;;;;;4998480;28;20469;-70
2020/12/20 10:45:03;;;;;;;15.23;10.30;;;6.70;99.90;;;;;;5002322;28;20872;-69
2020/12/20 10:47:31;;;;;;;17.27;11.07;;;6.60;99.90;;;;;;5002010;28;20779;-70
2020/12/20 10:49:57;;;;;;;16.27;9.60;;;6.60;99.90;;;;;;5001787;28;20485;-72
2020/12/20 10:52:24;;;;;;;18.17;10.23;;;6.50;99.90;;;;;;5002232;28;20528;-70
2020/12/20 10:54:51;;;;;;;17.30;10.63;;;6.40;99.90;;;;;;5001934;28;20920;-68
2020/12/20 10:57:17;;;;;;;18.90;11.37;;;6.30;99.90;;;;;;5000988;28;21062;-69
2020/12/20 10:59:43;;;;;;;15.40;10.23;;;6.30;99.90;;;;;;5001636;28;20553;-69
2020/12/20 11:02:12;;;;;;;16.80;10.80;;;6.30;99.90;;;;;;5002105;28;20871;-72
2020/12/20 11:04:38;;;;;;;16.20;9.37;;;6.40;99.90;;;;;;5001744;28;20465;-67
2020/12/20 11:07:05;;;;;;;12.00;9.80;;;6.50;99.90;;;;;;4995703;28;20486;-68
2020/12/20 11:09:32;;;;;;;15.23;10.53;;;6.50;99.90;;;;;;4997122;28;20460;-70
2020/12/20 11:11:59;;;;;;;15.60;9.27;;;6.50;99.90;;;;;;4999747;28;20486;-71
2020/12/20 11:14:26;;;;;;;15.53;10.57;;;6.40;99.90;;;;;;4986907;28;20469;-71
2020/12/20 11:16:53;;;;;;;14.80;8.17;;;6.40;99.90;;;;;;4992266;28;20451;-71
2020/12/20 11:21:55;;;;;;;15.00;9.43;;;6.30;99.90;;;;;;5885364;23;20945;-70
2020/12/20 11:24:23;;;;;;;16.27;11.47;;;6.30;99.90;;;;;;4993768;28;20470;-71
2020/12/20 11:26:52;;;;;;;16.20;10.83;;;6.30;99.90;;;;;;4994375;28;20465;-70
2020/12/20 11:29:21;;;;;;;15.97;9.80;;;6.30;99.90;;;;;;4992761;28;20462;-71
2020/12/20 11:31:47;;;;;;;20.67;11.47;;;6.30;99.90;;;;;;4998513;28;20481;-71
2020/12/20 11:34:14;;;;;;;15.77;9.83;;;6.20;99.90;;;;;;4995340;28;20498;-72
2020/12/20 11:36:42;;;;;;;14.50;9.50;;;6.30;99.90;;;;;;5001477;28;20453;-70
2020/12/20 11:39:10;;;;;;;20.53;10.33;;;6.40;99.90;;;;;;4996759;28;20564;-71
2020/12/20 11:41:37;;;;;;;14.27;9.87;;;6.40;99.90;;;;;;4983770;28;20447;-72
2020/12/20 11:44:05;;;;;;;25.93;10.33;;;6.60;99.90;;;;;;4999363;28;20530;-72
2020/12/20 11:46:33;;;;;;;15.70;10.07;;;6.70;99.90;;;;;;4989370;28;20438;-73
2020/12/20 11:49:00;;;;;;;14.30;9.60;;;6.60;99.90;;;;;;5002529;28;20544;-71
2020/12/20 11:51:27;;;;;;;14.87;9.97;;;6.60;99.90;;;;;;5002809;28;20583;-72
2020/12/20 11:53:54;;;;;;;11.77;9.57;;;6.60;99.90;;;;;;5001883;28;20450;-72
2020/12/20 11:56:21;;;;;;;17.37;9.83;;;6.70;99.90;;;;;;5001690;28;20450;-72
2020/12/20 11:58:47;;;;;;;18.83;12.33;;;6.70;99.90;;;;;;4995064;28;20936;-72
2020/12/20 12:01:20;;;;;;;12.30;9.30;;;6.80;99.90;;;;;;5002050;28;20470;-72
2020/12/20 12:03:47;;;;;;;16.33;10.27;;;6.90;99.90;;;;;;4992159;28;20466;-73
2020/12/20 12:06:15;;;;;;;17.60;11.70;;;6.80;99.90;;;;;;4995385;28;20470;-71
2020/12/20 12:08:44;;;;;;;15.30;10.87;;;6.90;99.90;;;;;;4992806;28;20522;-72
2020/12/20 12:11:10;;;;;;;14.63;9.70;;;6.80;99.90;;;;;;4999334;28;20485;-73
2020/12/20 12:13:37;;;;;;;12.47;8.87;;;7.00;99.90;;;;;;5001152;28;20799;-73
2020/12/20 12:16:04;;;;;;;12.90;9.20;;;7.10;99.90;;;;;;4992187;28;20471;-72
2020/12/20 12:18:32;;;;;;;13.53;9.90;;;7.10;99.90;;;;;;4982425;28;20455;-73
2020/12/20 12:20:59;;;;;;;16.60;10.00;;;7.10;99.90;;;;;;4982685;28;20486;-72
2020/12/20 12:23:25;;;;;;;16.20;9.47;;;7.10;99.90;;;;;;4989646;28;20465;-72
2020/12/20 12:25:54;;;;;;;14.27;9.33;;;7.10;99.90;;;;;;5000455;28;20601;-73
2020/12/20 12:28:21;;;;;;;14.37;9.00;;;7.00;99.90;;;;;;4993341;28;20457;-74
2020/12/20 12:30:47;;;;;;;13.50;9.37;;;7.10;99.90;;;;;;4989134;28;20514;-73
2020/12/20 12:33:14;;;;;;;15.17;9.40;;;7.10;99.90;;;;;;4988626;28;20446;-73
2020/12/20 12:35:41;;;;;;;13.77;9.07;;;7.20;99.90;;;;;;4989918;28;20466;-73
2020/12/20 12:38:07;;;;;;;18.17;10.40;;;7.20;99.90;;;;;;4989673;28;20439;-73
2020/12/20 12:40:34;;;;;;;14.73;9.30;;;7.20;99.90;;;;;;4993969;28;20462;-72
2020/12/20 12:43:00;;;;;;;18.80;10.70;;;7.20;99.90;;;;;;4988888;28;20485;-72
2020/12/20 12:45:27;;;;;;;16.07;9.13;;;7.20;99.90;;;;;;4991543;28;20447;-73
2020/12/20 12:47:53;;;;;;;18.80;10.77;;;7.20;99.90;;;;;;4988868;28;20509;-72